Time;durP1;ratioP1;P1;durP2;ratioP2;P2;SDS_P1;SDS_P2;PMS_P1;PMS_P2;Temp;Humidity;BMP_temperature;BMP_pressure;BME280_temperature;BME280_humidity;BME280_pressure;Samples;Min_cycle;Max_cycle;Signal;HPM_P1;HPM_P2
2020/12/03 00:01:20;;;;;;;18.63;13.20;;;4.30;99.90;;;;;;5090494;28;20203;-69
2020/12/03 00:03:52;;;;;;;22.57;13.73;;;4.30;99.90;;;;;;5089034;28;20192;-70
2020/12/03 00:06:27;;;;;;;20.87;14.07;;;4.30;99.90;;;;;;5085366;28;20498;-70
2020/12/03 00:08:57;;;;;;;23.23;14.27;;;4.30;99.90;;;;;;5089225;28;20447;-69
2020/12/03 00:11:26;;;;;;;24.40;14.57;;;4.30;99.90;;;;;;5091724;28;20467;-69
2020/12/03 00:13:51;;;;;;;22.27;14.03;;;4.30;99.90;;;;;;5077045;28;20452;-69
2020/12/03 00:16:17;;;;;;;20.47;14.63;;;4.30;99.90;;;;;;5091599;28;20438;-71
2020/12/03 00:18:43;;;;;;;23.10;15.27;;;4.30;99.90;;;;;;5090484;28;20275;-71
2020/12/03 00:21:11;;;;;;;21.27;15.93;;;4.30;99.90;;;;;;5090612;28;20184;-70
2020/12/03 00:23:39;;;;;;;22.50;14.70;;;4.30;99.90;;;;;;5090968;28;20937;-69
2020/12/03 00:26:06;;;;;;;25.37;16.73;;;4.40;99.90;;;;;;5092642;28;20515;-70
2020/12/03 00:28:37;;;;;;;26.03;14.10;;;4.40;99.90;;;;;;5086938;28;20538;-70
2020/12/03 00:31:04;;;;;;;21.73;14.87;;;4.40;99.90;;;;;;5088411;28;20458;-70
2020/12/03 00:33:30;;;;;;;29.13;17.87;;;4.40;99.90;;;;;;5088910;28;20416;-70
2020/12/03 00:35:56;;;;;;;21.87;13.93;;;4.40;99.90;;;;;;5092611;28;20942;-70
2020/12/03 00:38:24;;;;;;;27.13;17.00;;;4.40;99.90;;;;;;5091711;28;20439;-71
2020/12/03 00:40:50;;;;;;;21.40;14.40;;;4.50;99.90;;;;;;5092007;28;20423;-71
2020/12/03 00:43:16;;;;;;;25.33;15.70;;;4.50;99.90;;;;;;5092324;28;20454;-69
2020/12/03 00:45:46;;;;;;;22.70;15.17;;;4.50;99.90;;;;;;5090428;28;20431;-70
2020/12/03 00:48:12;;;;;;;26.40;14.63;;;4.50;99.90;;;;;;5092019;28;20503;-71
2020/12/03 00:50:37;;;;;;;21.53;14.97;;;4.50;99.90;;;;;;5091937;28;20885;-71
2020/12/03 00:53:03;;;;;;;22.53;15.53;;;4.50;99.90;;;;;;5092130;28;20522;-70
2020/12/03 00:55:28;;;;;;;22.73;14.47;;;4.50;99.90;;;;;;5091434;28;20192;-70
2020/12/03 00:57:54;;;;;;;28.30;16.87;;;4.60;99.90;;;;;;5080488;28;20273;-69
2020/12/03 01:00:21;;;;;;;30.67;14.70;;;4.50;99.90;;;;;;5087285;28;20173;-70
2020/12/03 01:02:48;;;;;;;21.67;14.40;;;4.60;99.90;;;;;;5091898;28;20593;-71
2020/12/03 01:05:16;;;;;;;17.13;13.37;;;4.70;99.90;;;;;;5091764;28;20427;-70
2020/12/03 01:07:42;;;;;;;22.23;15.03;;;4.70;99.90;;;;;;5092110;28;20791;-70
2020/12/03 01:10:13;;;;;;;20.07;15.23;;;4.70;99.90;;;;;;5091674;28;20446;-70
2020/12/03 01:12:39;;;;;;;21.63;15.00;;;4.80;99.90;;;;;;5091415;28;20427;-71
2020/12/03 01:15:06;;;;;;;18.50;13.23;;;4.70;99.90;;;;;;5089798;28;20481;-69
2020/12/03 01:17:31;;;;;;;21.00;15.27;;;4.70;99.90;;;;;;5090689;28;20252;-69
2020/12/03 01:19:57;;;;;;;19.97;14.03;;;4.70;99.90;;;;;;5091667;28;20526;-70
2020/12/03 01:22:22;;;;;;;19.87;13.53;;;4.70;99.90;;;;;;5091332;28;20170;-69
2020/12/03 01:24:48;;;;;;;16.70;13.40;;;4.70;99.90;;;;;;5084141;28;20165;-71
2020/12/03 01:27:14;;;;;;;20.83;15.43;;;4.60;99.90;;;;;;5091629;28;20169;-70
2020/12/03 01:29:40;;;;;;;18.77;13.70;;;4.50;99.90;;;;;;5091240;28;20205;-70
2020/12/03 01:32:07;;;;;;;18.90;13.40;;;4.60;99.90;;;;;;5091361;28;20572;-70
2020/12/03 01:34:32;;;;;;;19.37;13.60;;;4.50;99.90;;;;;;5091302;28;20415;-70
2020/12/03 01:36:58;;;;;;;20.00;12.87;;;4.50;99.90;;;;;;5091386;28;20965;-70
2020/12/03 01:39:24;;;;;;;24.10;16.40;;;4.50;99.90;;;;;;5091611;28;20193;-70
2020/12/03 01:41:50;;;;;;;22.63;14.67;;;4.50;99.90;;;;;;5090244;28;20982;-70
2020/12/03 01:44:32;;;;;;;21.47;14.10;;;4.50;99.90;;;;;;5090409;28;20237;-70
2020/12/03 01:46:58;;;;;;;20.90;15.13;;;4.40;99.90;;;;;;5085813;28;20431;-70
2020/12/03 01:49:30;;;;;;;22.07;14.90;;;4.40;99.90;;;;;;5084459;28;20836;-70
2020/12/03 01:51:56;;;;;;;20.80;13.33;;;4.40;99.90;;;;;;5086885;28;20454;-70
2020/12/03 01:54:22;;;;;;;19.43;13.17;;;4.40;99.90;;;;;;5090828;28;20489;-70
2020/12/03 01:56:54;;;;;;;19.13;13.87;;;4.40;99.90;;;;;;5089534;28;20442;-70
2020/12/03 01:59:21;;;;;;;21.70;14.40;;;4.50;99.90;;;;;;5089102;28;20564;-70
2020/12/03 02:01:47;;;;;;;21.17;13.73;;;4.50;99.90;;;;;;5089113;28;20432;-70
2020/12/03 02:04:13;;;;;;;20.77;13.97;;;4.50;99.90;;;;;;5091228;28;20426;-71
2020/12/03 02:06:41;;;;;;;20.37;12.37;;;4.50;99.90;;;;;;5091101;28;20520;-70
2020/12/03 02:09:10;;;;;;;21.53;13.57;;;4.50;99.90;;;;;;5091339;28;20189;-70
2020/12/03 02:11:36;;;;;;;23.00;15.07;;;4.50;99.90;;;;;;5087878;28;20459;-70
2020/12/03 02:14:06;;;;;;;20.53;14.40;;;4.50;99.90;;;;;;5090285;28;20442;-70
2020/12/03 02:16:39;;;;;;;22.80;14.03;;;4.50;99.90;;;;;;5088630;28;20868;-70
2020/12/03 02:19:16;;;;;;;19.53;12.97;;;4.60;99.90;;;;;;5088051;28;20463;-70
2020/12/03 02:21:42;;;;;;;17.93;12.27;;;4.60;99.90;;;;;;5089933;28;20437;-69
2020/12/03 02:24:08;;;;;;;21.80;14.40;;;4.50;99.90;;;;;;5090557;28;20477;-70
2020/12/03 02:26:33;;;;;;;20.60;14.00;;;4.50;99.90;;;;;;5092958;28;20443;-70
2020/12/03 02:28:59;;;;;;;22.27;14.13;;;4.50;99.90;;;;;;5094149;28;20198;-70
2020/12/03 02:31:24;;;;;;;19.83;12.80;;;4.50;99.90;;;;;;5093045;28;20193;-70
2020/12/03 02:33:50;;;;;;;17.60;13.10;;;4.50;99.90;;;;;;5094771;28;20511;-70
2020/12/03 02:36:16;;;;;;;19.07;13.80;;;4.50;99.90;;;;;;5092529;28;20185;-70
2020/12/03 02:38:42;;;;;;;19.40;12.97;;;4.50;99.90;;;;;;5093664;28;20190;-70
2020/12/03 02:41:08;;;;;;;18.93;13.10;;;4.40;99.90;;;;;;5092920;28;20181;-70
2020/12/03 02:43:34;;;;;;;17.80;12.60;;;4.40;99.90;;;;;;5092809;28;20435;-69
2020/12/03 02:45:59;;;;;;;23.17;16.27;;;4.50;99.90;;;;;;5093465;28;20522;-70
2020/12/03 02:48:25;;;;;;;20.63;13.80;;;4.50;99.90;;;;;;5093748;28;20209;-70
2020/12/03 02:50:51;;;;;;;20.00;13.40;;;4.60;99.90;;;;;;5091947;28;20328;-70
2020/12/03 02:53:17;;;;;;;17.57;12.47;;;4.60;99.90;;;;;;5087577;28;20234;-69
2020/12/03 02:55:42;;;;;;;16.23;12.50;;;4.70;99.90;;;;;;5090334;28;20193;-69
2020/12/03 02:58:08;;;;;;;18.90;12.30;;;4.60;99.90;;;;;;5093670;28;20454;-70
2020/12/03 03:00:33;;;;;;;16.50;13.20;;;4.70;99.90;;;;;;5092850;28;20188;-70
2020/12/03 03:02:59;;;;;;;17.07;12.30;;;4.70;99.90;;;;;;5093213;28;20182;-70
2020/12/03 03:05:25;;;;;;;18.63;12.47;;;4.80;99.90;;;;;;5093270;28;20616;-70
2020/12/03 03:07:50;;;;;;;20.27;12.23;;;4.80;99.90;;;;;;5092684;28;20173;-70
2020/12/03 03:10:19;;;;;;;18.40;12.83;;;4.80;99.90;;;;;;5092408;28;20281;-70
2020/12/03 03:12:47;;;;;;;17.93;12.13;;;4.80;99.90;;;;;;5092344;28;20231;-70
2020/12/03 03:15:14;;;;;;;14.00;8.73;;;4.80;99.90;;;;;;5093834;28;20424;-70
2020/12/03 03:17:40;;;;;;;11.57;7.80;;;4.80;99.90;;;;;;5093226;28;20521;-71
2020/12/03 03:20:05;;;;;;;8.67;6.50;;;4.90;99.90;;;;;;5093494;28;20451;-70
2020/12/03 03:22:31;;;;;;;15.80;7.90;;;4.90;99.90;;;;;;5092014;28;20169;-69
2020/12/03 03:24:56;;;;;;;13.73;6.93;;;4.90;99.90;;;;;;5091383;28;20178;-70
2020/12/03 03:27:22;;;;;;;10.67;7.53;;;5.00;99.90;;;;;;5092265;28;20787;-70
2020/12/03 03:29:48;;;;;;;7.50;5.73;;;4.90;99.90;;;;;;5091055;28;20247;-70
2020/12/03 03:32:13;;;;;;;7.37;5.43;;;5.00;99.90;;;;;;5091776;28;20240;-69
2020/12/03 03:34:39;;;;;;;9.93;5.70;;;5.10;99.90;;;;;;5091241;28;20177;-71
2020/12/03 03:37:04;;;;;;;6.43;5.37;;;5.10;99.90;;;;;;5088475;28;20181;-70
2020/12/03 03:39:30;;;;;;;8.70;5.63;;;5.10;99.90;;;;;;5091463;28;20193;-70
2020/12/03 03:41:56;;;;;;;7.03;5.23;;;5.10;99.90;;;;;;5090790;28;20521;-70
2020/12/03 03:44:22;;;;;;;7.07;5.10;;;5.10;99.90;;;;;;5093347;28;20423;-70
2020/12/03 03:46:48;;;;;;;5.37;4.70;;;5.10;99.90;;;;;;5091961;28;20214;-70
2020/12/03 03:49:14;;;;;;;6.03;4.70;;;5.20;99.90;;;;;;5092188;28;20516;-70
2020/12/03 03:51:40;;;;;;;9.43;4.77;;;5.10;99.90;;;;;;5091433;28;20464;-70
2020/12/03 03:54:05;;;;;;;7.20;4.40;;;5.10;99.90;;;;;;5092503;28;20834;-70
2020/12/03 03:56:31;;;;;;;8.13;4.80;;;5.20;99.90;;;;;;5086414;28;20197;-70
2020/12/03 03:58:57;;;;;;;7.40;5.10;;;5.20;99.90;;;;;;5090235;28;20649;-70
2020/12/03 04:01:22;;;;;;;6.50;4.73;;;5.20;99.90;;;;;;5089411;28;20173;-70
2020/12/03 04:03:48;;;;;;;7.77;4.53;;;5.40;99.90;;;;;;5092424;28;20186;-69
2020/12/03 04:06:14;;;;;;;6.87;4.63;;;5.30;99.90;;;;;;5091648;28;20267;-70
2020/12/03 04:08:39;;;;;;;7.30;5.43;;;5.30;99.90;;;;;;5092176;28;20232;-71
2020/12/03 04:11:05;;;;;;;9.07;4.53;;;5.20;99.90;;;;;;5091385;28;20250;-69
2020/12/03 04:13:31;;;;;;;5.50;4.27;;;5.20;99.90;;;;;;5092081;28;20173;-72
2020/12/03 04:15:56;;;;;;;8.20;4.23;;;5.20;99.90;;;;;;5091189;28;20261;-70
2020/12/03 04:18:26;;;;;;;6.53;4.30;;;5.20;99.90;;;;;;5092227;28;20185;-70
2020/12/03 04:21:00;;;;;;;7.47;4.33;;;5.10;99.90;;;;;;5089785;28;20639;-69
2020/12/03 04:23:26;;;;;;;6.53;4.50;;;5.10;99.90;;;;;;5092666;28;20896;-70
2020/12/03 04:25:52;;;;;;;6.20;4.30;;;5.10;99.90;;;;;;5092505;28;20450;-70
2020/12/03 04:28:18;;;;;;;6.37;4.87;;;5.10;99.90;;;;;;5092531;28;20475;-70
2020/12/03 04:30:44;;;;;;;6.50;5.37;;;5.10;99.90;;;;;;5091997;28;20189;-70
2020/12/03 04:33:10;;;;;;;7.73;5.10;;;5.20;99.90;;;;;;5089371;28;20450;-70
2020/12/03 04:35:37;;;;;;;7.17;5.30;;;5.20;99.90;;;;;;5090929;28;20435;-70
2020/12/03 04:38:07;;;;;;;6.33;4.73;;;5.30;99.90;;;;;;5092353;28;20430;-70
2020/12/03 04:40:38;;;;;;;6.87;5.10;;;5.30;99.90;;;;;;5091347;28;20427;-70
2020/12/03 04:43:20;;;;;;;6.50;4.50;;;5.30;99.90;;;;;;5091346;28;20442;-70
2020/12/03 04:45:52;;;;;;;4.97;4.00;;;5.40;99.90;;;;;;5092054;28;20426;-71
2020/12/03 04:48:30;;;;;;;10.50;6.03;;;5.50;99.90;;;;;;5089965;28;20476;-70
2020/12/03 04:51:09;;;;;;;9.33;6.47;;;5.40;99.90;;;;;;5083392;28;20458;-70
2020/12/03 04:54:13;;;;;;;10.00;5.63;;;5.40;99.90;;;;;;5091438;28;20463;-70
2020/12/03 04:57:14;;;;;;;9.20;6.97;;;5.40;99.90;;;;;;5081290;28;20439;-70
2020/12/03 04:59:56;;;;;;;9.40;6.87;;;5.40;99.90;;;;;;5083472;28;21003;-70
2020/12/03 05:02:47;;;;;;;11.57;7.03;;;5.40;99.90;;;;;;5090476;28;20423;-70
2020/12/03 05:05:21;;;;;;;9.27;6.53;;;5.30;99.90;;;;;;5091530;28;20435;-71
2020/12/03 05:07:54;;;;;;;11.67;6.07;;;5.30;99.90;;;;;;5090685;28;20476;-70
2020/12/03 05:10:22;;;;;;;6.50;5.33;;;5.20;99.90;;;;;;5089650;28;20936;-70
2020/12/03 05:12:48;;;;;;;8.20;6.13;;;5.20;99.90;;;;;;5089929;28;20909;-70
2020/12/03 05:15:23;;;;;;;10.33;5.80;;;5.20;99.90;;;;;;5091765;28;20420;-70
2020/12/03 05:18:08;;;;;;;7.30;5.37;;;5.20;99.90;;;;;;5091453;28;20435;-70
2020/12/03 05:20:36;;;;;;;8.97;6.00;;;5.10;99.90;;;;;;5091406;28;20985;-70
2020/12/03 05:23:39;;;;;;;11.00;6.50;;;5.10;99.90;;;;;;5090427;28;20923;-70
2020/12/03 05:26:34;;;;;;;8.60;5.70;;;5.20;99.90;;;;;;5072792;28;20430;-70
2020/12/03 05:29:08;;;;;;;15.40;6.50;;;5.20;99.90;;;;;;5084029;28;20483;-70
2020/12/03 05:31:43;;;;;;;10.10;6.63;;;5.20;99.90;;;;;;5089822;28;20950;-70
2020/12/03 05:34:20;;;;;;;10.97;6.40;;;5.10;99.90;;;;;;5089895;28;20426;-70
2020/12/03 05:36:54;;;;;;;7.97;5.20;;;5.00;99.90;;;;;;5090123;28;20810;-69
2020/12/03 05:39:36;;;;;;;7.57;5.87;;;4.90;99.90;;;;;;5091683;28;20954;-70
2020/12/03 05:42:05;;;;;;;9.17;6.70;;;4.90;99.90;;;;;;5089394;28;20810;-70
2020/12/03 05:44:47;;;;;;;9.73;6.27;;;4.80;99.90;;;;;;5090475;28;20494;-71
2020/12/03 05:47:25;;;;;;;8.73;7.43;;;4.70;99.90;;;;;;5091692;28;20415;-70
2020/12/03 05:50:16;;;;;;;9.47;7.03;;;4.60;99.90;;;;;;5091457;28;20450;-70
2020/12/03 05:53:00;;;;;;;10.60;6.67;;;4.60;99.90;;;;;;5089772;28;20444;-71
2020/12/03 05:55:27;;;;;;;9.60;6.77;;;4.60;99.90;;;;;;5091383;28;20458;-70
2020/12/03 05:57:52;;;;;;;9.40;7.83;;;4.60;99.90;;;;;;5089535;28;20427;-70
2020/12/03 06:00:24;;;;;;;8.47;7.33;;;4.60;99.90;;;;;;5089836;28;20441;-70
2020/12/03 06:02:53;;;;;;;10.80;6.90;;;4.50;99.90;;;;;;5089315;28;20173;-70
2020/12/03 06:05:30;;;;;;;11.10;7.73;;;4.50;99.90;;;;;;5093841;28;20426;-70
2020/12/03 06:08:17;;;;;;;10.23;6.80;;;4.50;99.90;;;;;;5095323;28;20472;-71
2020/12/03 06:10:48;;;;;;;12.37;7.43;;;4.40;99.90;;;;;;5093486;28;20491;-70
2020/12/03 06:13:28;;;;;;;8.87;6.77;;;4.50;99.90;;;;;;5094421;28;20443;-69
2020/12/03 06:16:00;;;;;;;11.00;8.67;;;4.50;99.90;;;;;;5086678;28;20434;-70
2020/12/03 06:18:59;;;;;;;11.33;7.43;;;4.40;99.90;;;;;;5094784;28;20504;-70
2020/12/03 06:21:30;;;;;;;11.80;6.87;;;4.40;99.90;;;;;;5093295;28;20496;-70
2020/12/03 06:24:07;;;;;;;11.03;8.83;;;4.40;99.90;;;;;;5094334;28;20515;-70
2020/12/03 06:27:07;;;;;;;11.13;7.17;;;4.40;99.90;;;;;;5094010;28;20435;-70
2020/12/03 06:30:12;;;;;;;12.70;8.43;;;4.40;99.90;;;;;;5093535;28;20825;-70
2020/12/03 06:32:53;;;;;;;13.33;8.77;;;4.50;99.90;;;;;;5075018;28;20948;-71
2020/12/03 06:35:40;;;;;;;12.30;8.33;;;4.50;99.90;;;;;;5092416;28;20831;-69
2020/12/03 06:38:26;;;;;;;12.87;9.00;;;4.50;99.90;;;;;;5088802;28;20423;-70
2020/12/03 06:41:21;;;;;;;14.30;8.83;;;4.50;99.90;;;;;;5091399;28;20804;-72
2020/12/03 06:43:53;;;;;;;11.53;8.37;;;4.50;99.90;;;;;;5085675;28;20433;-71
2020/12/03 06:46:40;;;;;;;13.43;9.80;;;4.40;99.90;;;;;;5093627;28;20430;-71
2020/12/03 06:49:27;;;;;;;12.80;8.20;;;4.40;99.90;;;;;;5094305;28;20809;-71
2020/12/03 06:51:56;;;;;;;12.90;7.50;;;4.50;99.90;;;;;;5092660;28;20463;-71
2020/12/03 06:54:55;;;;;;;14.00;8.53;;;4.40;99.90;;;;;;5093211;28;20838;-70
2020/12/03 06:57:50;;;;;;;16.00;9.40;;;4.30;99.90;;;;;;5081906;28;20438;-70
2020/12/03 07:00:27;;;;;;;14.17;8.90;;;4.20;99.90;;;;;;5093347;28;20462;-70
2020/12/03 07:03:18;;;;;;;17.43;9.53;;;4.20;99.90;;;;;;5093270;28;21264;-71
2020/12/03 07:06:19;;;;;;;10.70;7.73;;;4.20;99.90;;;;;;5088413;28;20438;-71
2020/12/03 07:09:05;;;;;;;14.50;8.53;;;4.20;99.90;;;;;;5094107;28;20522;-70
2020/12/03 07:11:54;;;;;;;10.57;8.17;;;4.20;99.90;;;;;;5088559;28;20956;-70
2020/12/03 07:14:41;;;;;;;12.50;8.07;;;4.20;99.90;;;;;;5092298;28;20774;-69
2020/12/03 07:17:10;;;;;;;14.73;8.70;;;4.20;99.90;;;;;;5092776;28;20439;-69
2020/12/03 07:20:05;;;;;;;16.17;9.33;;;4.30;99.90;;;;;;5094583;28;20950;-70
2020/12/03 07:22:37;;;;;;;13.47;9.53;;;4.30;99.90;;;;;;5077305;28;20467;-70
2020/12/03 07:25:04;;;;;;;15.00;9.23;;;4.30;99.90;;;;;;5091998;28;20435;-71
2020/12/03 07:27:44;;;;;;;9.90;8.90;;;4.40;99.90;;;;;;5092277;28;20529;-70
2020/12/03 07:30:12;;;;;;;14.53;10.33;;;4.30;99.90;;;;;;5090818;28;20523;-69
2020/12/03 07:32:59;;;;;;;13.07;7.67;;;4.40;99.90;;;;;;5093077;28;20436;-71
2020/12/03 07:35:44;;;;;;;12.33;7.60;;;4.40;99.90;;;;;;5089264;28;20438;-71
2020/12/03 07:38:37;;;;;;;15.17;9.93;;;4.50;99.90;;;;;;5091078;28;20484;-70
2020/12/03 07:41:04;;;;;;;12.80;8.97;;;4.50;99.90;;;;;;5091274;28;20435;-71
2020/12/03 07:43:33;;;;;;;12.80;8.63;;;4.50;99.90;;;;;;5090186;28;20436;-70
2020/12/03 07:46:00;;;;;;;17.93;10.13;;;4.50;99.90;;;;;;5092353;28;20438;-71
2020/12/03 07:48:42;;;;;;;13.43;9.13;;;4.50;99.90;;;;;;5091669;28;20459;-69
2020/12/03 07:51:12;;;;;;;13.53;8.77;;;4.50;99.90;;;;;;5078894;28;20482;-70
2020/12/03 07:53:38;;;;;;;14.20;8.93;;;4.50;99.90;;;;;;5091099;28;20435;-71
2020/12/03 07:56:35;;;;;;;14.10;9.27;;;4.50;99.90;;;;;;5092361;28;20854;-71
2020/12/03 07:59:23;;;;;;;11.17;9.13;;;4.50;99.90;;;;;;5090526;28;20443;-71
2020/12/03 08:01:52;;;;;;;12.87;9.47;;;4.50;99.90;;;;;;5091490;28;20802;-70
2020/12/03 08:04:17;;;;;;;13.57;9.60;;;4.50;99.90;;;;;;5092369;28;20420;-70
2020/12/03 08:07:04;;;;;;;10.83;8.03;;;4.50;99.90;;;;;;5087671;28;20920;-71
2020/12/03 08:09:38;;;;;;;14.00;9.10;;;4.50;99.90;;;;;;5089629;28;20209;-71
2020/12/03 08:12:28;;;;;;;12.63;9.27;;;4.50;99.90;;;;;;5091635;28;20459;-70
2020/12/03 08:14:55;;;;;;;15.83;11.20;;;4.40;99.90;;;;;;5092207;28;20500;-73
2020/12/03 08:17:21;;;;;;;17.40;10.57;;;4.40;99.90;;;;;;5092455;28;20422;-73
2020/12/03 08:20:02;;;;;;;15.43;9.80;;;4.40;99.90;;;;;;5091572;28;20818;-73
2020/12/03 08:22:33;;;;;;;16.57;10.73;;;4.40;99.90;;;;;;5083222;28;20519;-73
2020/12/03 08:25:18;;;;;;;13.90;9.30;;;4.30;99.90;;;;;;5090972;28;20431;-74
2020/12/03 08:28:02;;;;;;;15.33;10.70;;;4.30;99.90;;;;;;5088261;28;20435;-74
2020/12/03 08:30:37;;;;;;;17.13;10.27;;;4.20;99.90;;;;;;5088522;28;20466;-73
2020/12/03 08:33:05;;;;;;;15.57;10.73;;;4.20;99.90;;;;;;5089531;28;20415;-72
2020/12/03 08:35:31;;;;;;;15.80;11.07;;;4.20;99.90;;;;;;5091519;28;20430;-73
2020/12/03 08:38:01;;;;;;;16.30;11.70;;;4.20;99.90;;;;;;5089637;28;20472;-73
2020/12/03 08:40:29;;;;;;;19.40;11.80;;;4.20;99.90;;;;;;5091999;28;20419;-74
2020/12/03 08:42:55;;;;;;;18.60;11.67;;;4.10;99.90;;;;;;5090890;28;20412;-71
2020/12/03 08:45:20;;;;;;;19.60;11.47;;;4.10;99.90;;;;;;5091453;28;20419;-72
2020/12/03 08:47:51;;;;;;;15.50;9.80;;;4.20;99.90;;;;;;5089664;28;20439;-71
2020/12/03 08:50:17;;;;;;;17.13;10.60;;;4.20;99.90;;;;;;5092215;28;20590;-70
2020/12/03 08:52:43;;;;;;;16.90;11.10;;;4.20;99.90;;;;;;5087644;28;20423;-71
2020/12/03 08:55:10;;;;;;;17.37;11.23;;;4.20;99.90;;;;;;5079949;28;20452;-71
2020/12/03 08:57:39;;;;;;;19.57;11.93;;;4.20;99.90;;;;;;5087483;28;21138;-72
2020/12/03 09:00:13;;;;;;;13.77;9.83;;;4.20;99.90;;;;;;5088555;28;20484;-72
2020/12/03 09:02:41;;;;;;;11.87;8.63;;;4.20;99.90;;;;;;5083669;28;20440;-72
2020/12/03 09:05:07;;;;;;;15.60;8.80;;;4.20;99.90;;;;;;5083424;28;20427;-72
2020/12/03 09:07:41;;;;;;;17.23;10.80;;;4.30;99.90;;;;;;5083337;28;20506;-72
2020/12/03 09:10:09;;;;;;;15.97;9.83;;;4.30;99.90;;;;;;5085762;28;20463;-72
2020/12/03 09:12:39;;;;;;;17.13;10.40;;;4.30;99.90;;;;;;5087656;28;20427;-72
2020/12/03 09:15:06;;;;;;;15.10;9.93;;;4.30;99.90;;;;;;5083580;28;20432;-72
2020/12/03 09:17:39;;;;;;;17.50;9.83;;;4.40;99.90;;;;;;5082949;28;20432;-72
2020/12/03 09:20:07;;;;;;;14.60;9.50;;;4.40;99.90;;;;;;5083137;28;20443;-73
2020/12/03 09:22:35;;;;;;;16.80;11.63;;;4.40;99.90;;;;;;5084335;28;20459;-72
2020/12/03 09:25:05;;;;;;;15.90;10.20;;;4.50;99.90;;;;;;5084528;28;20438;-73
2020/12/03 09:27:33;;;;;;;15.70;9.93;;;4.50;99.90;;;;;;5081973;28;20495;-72
2020/12/03 09:30:02;;;;;;;14.30;9.53;;;4.50;99.90;;;;;;5082530;28;20456;-72
2020/12/03 09:32:31;;;;;;;13.53;9.70;;;4.50;99.90;;;;;;5084981;28;20495;-72
2020/12/03 09:34:57;;;;;;;13.67;9.97;;;4.50;99.90;;;;;;5086359;28;20472;-72
2020/12/03 09:37:23;;;;;;;18.90;11.07;;;4.50;99.90;;;;;;5087557;28;20427;-71
2020/12/03 09:39:49;;;;;;;14.40;10.97;;;4.50;99.90;;;;;;5088448;28;20809;-72
2020/12/03 09:42:16;;;;;;;15.30;9.40;;;4.50;99.90;;;;;;5087960;28;20596;-73
2020/12/03 09:44:53;;;;;;;20.50;10.60;;;4.50;99.90;;;;;;5086992;28;20435;-73
2020/12/03 09:47:22;;;;;;;19.73;10.40;;;4.60;99.90;;;;;;5085457;28;20487;-73
2020/12/03 09:49:49;;;;;;;13.80;10.67;;;4.60;99.90;;;;;;5089305;28;20451;-73
2020/12/03 09:52:16;;;;;;;17.33;11.97;;;4.50;99.90;;;;;;5083046;28;21036;-73
2020/12/03 09:54:43;;;;;;;16.17;10.60;;;4.60;99.90;;;;;;5089038;28;20436;-71
2020/12/03 09:57:10;;;;;;;19.40;11.13;;;4.60;99.90;;;;;;5085895;28;20470;-71
2020/12/03 09:59:39;;;;;;;12.10;8.90;;;4.60;99.90;;;;;;5091260;28;20466;-69
2020/12/03 10:02:08;;;;;;;15.17;10.20;;;4.70;99.90;;;;;;5087784;28;20435;-70
2020/12/03 10:04:52;;;;;;;15.10;9.07;;;4.70;99.90;;;;;;5083580;28;20454;-70
2020/12/03 10:07:54;;;;;;;14.27;9.00;;;4.80;99.90;;;;;;5086308;28;20427;-70
2020/12/03 10:10:39;;;;;;;14.20;9.77;;;4.80;99.90;;;;;;5087129;28;20463;-71
2020/12/03 10:13:23;;;;;;;15.93;10.07;;;4.80;99.90;;;;;;5089888;28;20438;-72
2020/12/03 10:16:07;;;;;;;15.83;11.37;;;4.80;99.90;;;;;;5092727;28;20431;-71
2020/12/03 10:18:54;;;;;;;18.30;12.97;;;4.90;99.90;;;;;;5089326;28;20431;-72
2020/12/03 10:21:25;;;;;;;23.47;13.00;;;5.00;99.90;;;;;;5092618;28;20427;-72
2020/12/03 10:24:08;;;;;;;23.93;14.70;;;5.10;99.90;;;;;;5090578;28;20417;-72
2020/12/03 10:26:55;;;;;;;26.83;14.17;;;5.10;99.90;;;;;;5092310;28;20522;-71
2020/12/03 10:29:33;;;;;;;25.80;14.23;;;5.10;99.90;;;;;;5090511;28;20443;-71
2020/12/03 10:32:00;;;;;;;17.43;10.60;;;5.20;99.90;;;;;;5093477;28;20942;-69
2020/12/03 10:34:29;;;;;;;21.40;12.37;;;5.20;99.90;;;;;;5092142;28;20524;-70
2020/12/03 10:37:01;;;;;;;16.63;10.10;;;5.20;99.90;;;;;;5094630;28;20780;-70
2020/12/03 10:39:35;;;;;;;18.90;10.50;;;5.20;99.90;;;;;;5087000;28;20440;-70
2020/12/03 10:42:01;;;;;;;12.57;9.47;;;5.20;99.90;;;;;;5083993;28;20408;-69
2020/12/03 10:44:29;;;;;;;16.80;11.70;;;5.10;99.90;;;;;;5086252;28;20502;-70
2020/12/03 10:47:01;;;;;;;17.30;10.90;;;5.20;99.90;;;;;;5086280;28;20419;-70
2020/12/03 10:49:27;;;;;;;21.87;13.13;;;5.20;99.90;;;;;;5083878;28;20450;-70
2020/12/03 10:52:01;;;;;;;20.40;12.87;;;5.20;99.90;;;;;;5085205;28;20445;-70
2020/12/03 10:54:27;;;;;;;24.77;13.60;;;5.20;99.90;;;;;;5083965;28;20412;-70
2020/12/03 10:56:55;;;;;;;18.43;11.50;;;5.20;99.90;;;;;;5085025;28;20869;-70
2020/12/03 10:59:25;;;;;;;19.23;11.63;;;5.20;99.90;;;;;;5083434;28;20508;-70
2020/12/03 11:01:53;;;;;;;15.53;9.93;;;5.20;99.90;;;;;;5083498;28;20416;-70
2020/12/03 11:04:21;;;;;;;16.77;9.60;;;5.30;99.90;;;;;;5083083;28;20419;-70
2020/12/03 11:06:46;;;;;;;15.47;9.30;;;5.20;99.90;;;;;;5085810;28;20504;-70
2020/12/03 11:09:20;;;;;;;15.13;9.63;;;5.20;99.90;;;;;;5084709;28;20476;-70
2020/12/03 11:11:47;;;;;;;16.17;9.70;;;5.20;99.90;;;;;;5086122;28;20205;-70
2020/12/03 11:14:15;;;;;;;11.90;8.77;;;5.20;99.90;;;;;;5082617;28;20413;-69
2020/12/03 11:16:50;;;;;;;15.20;10.27;;;5.20;99.90;;;;;;5084286;28;20408;-71
2020/12/03 11:19:17;;;;;;;19.90;10.87;;;5.20;99.90;;;;;;5084585;28;20427;-70
2020/12/03 11:22:05;;;;;;;17.20;10.10;;;5.20;99.90;;;;;;5085640;28;20473;-70
2020/12/03 11:24:44;;;;;;;15.57;9.37;;;5.30;99.90;;;;;;5084358;28;20405;-70
2020/12/03 11:27:10;;;;;;;12.90;8.63;;;5.40;99.90;;;;;;5084240;28;20401;-70
2020/12/03 11:29:36;;;;;;;14.77;9.17;;;5.40;99.90;;;;;;5080950;28;21235;-70
2020/12/03 11:32:02;;;;;;;14.50;8.67;;;5.50;99.90;;;;;;5086448;28;20470;-70
2020/12/03 11:34:38;;;;;;;12.47;7.33;;;5.60;99.90;;;;;;5083194;28;20427;-70
2020/12/03 11:37:07;;;;;;;12.03;7.73;;;5.60;99.90;;;;;;5080389;28;21068;-70
2020/12/03 11:39:33;;;;;;;14.33;7.77;;;5.60;99.90;;;;;;5080927;28;20441;-70
2020/12/03 11:50:14;;;;;;;17.47;8.97;;;5.70;99.90;;;;;;5082954;28;20449;-70
2020/12/03 11:52:40;;;;;;;15.97;9.10;;;5.70;99.90;;;;;;5080972;28;20413;-71
2020/12/03 11:55:26;;;;;;;17.37;9.83;;;5.80;99.90;;;;;;5081874;28;20402;-70
2020/12/03 11:58:02;;;;;;;12.87;7.90;;;5.90;99.90;;;;;;5083708;28;20230;-70
2020/12/03 12:00:29;;;;;;;13.43;8.67;;;6.10;99.90;;;;;;5083027;28;20415;-70
2020/12/03 12:02:54;;;;;;;19.20;8.53;;;6.40;99.90;;;;;;5081146;28;20465;-69
2020/12/03 12:05:37;;;;;;;9.87;7.30;;;6.40;99.90;;;;;;5082436;28;20892;-70
2020/12/03 12:10:46;;;;;;;13.80;7.83;;;6.20;99.90;;;;;;5080244;28;20456;-70
2020/12/03 12:13:16;;;;;;;15.70;8.73;;;6.00;99.90;;;;;;5082251;28;20815;-70
2020/12/03 12:15:42;;;;;;;15.50;8.93;;;5.90;99.90;;;;;;5083929;28;20419;-70
2020/12/03 12:18:08;;;;;;;13.53;7.60;;;5.90;99.90;;;;;;5082950;28;20486;-69
2020/12/03 12:20:34;;;;;;;12.90;8.80;;;6.00;99.90;;;;;;5086480;28;20428;-70
2020/12/03 12:23:00;;;;;;;11.67;7.27;;;6.00;99.90;;;;;;5081402;28;20486;-70
2020/12/03 12:25:25;;;;;;;12.80;8.70;;;6.10;99.90;;;;;;5081443;28;20949;-70
2020/12/03 12:27:51;;;;;;;12.87;8.03;;;6.20;99.90;;;;;;5081896;28;20169;-70
2020/12/03 12:30:16;;;;;;;17.00;8.60;;;6.30;99.90;;;;;;5080830;28;20183;-70
2020/12/03 12:32:42;;;;;;;9.57;6.40;;;6.50;99.90;;;;;;5083137;28;20194;-70
2020/12/03 12:35:08;;;;;;;13.33;7.67;;;6.50;99.90;;;;;;5082659;28;20658;-70
2020/12/03 12:37:33;;;;;;;10.53;7.00;;;6.40;99.90;;;;;;5080004;28;20216;-70
2020/12/03 12:39:59;;;;;;;9.73;6.37;;;6.50;99.90;;;;;;5081692;28;20182;-70
2020/12/03 12:42:26;;;;;;;12.03;6.77;;;6.30;99.90;;;;;;5081172;28;20171;-70
2020/12/03 12:44:53;;;;;;;10.73;6.60;;;6.30;99.90;;;;;;5080116;28;20528;-70
2020/12/03 12:47:18;;;;;;;13.83;9.60;;;6.20;99.90;;;;;;5080002;28;20416;-70
2020/12/03 12:49:44;;;;;;;10.90;7.87;;;6.30;99.90;;;;;;5081896;28;20459;-70
2020/12/03 12:52:10;;;;;;;12.33;8.73;;;6.20;99.90;;;;;;5090553;28;20190;-70
2020/12/03 12:54:36;;;;;;;12.97;8.40;;;6.20;99.90;;;;;;5090953;28;20169;-70
2020/12/03 12:57:02;;;;;;;12.40;8.73;;;6.20;99.90;;;;;;5091000;28;20166;-70
2020/12/03 12:59:28;;;;;;;12.13;8.23;;;6.20;99.90;;;;;;5090683;28;20743;-70
2020/12/03 13:01:54;;;;;;;13.33;8.80;;;6.20;99.90;;;;;;5090011;28;20968;-70
2020/12/03 13:04:22;;;;;;;11.43;8.17;;;6.20;99.90;;;;;;5091140;28;20400;-70
2020/12/03 13:06:48;;;;;;;9.60;6.70;;;6.10;99.90;;;;;;5089759;28;20540;-70
2020/12/03 13:09:14;;;;;;;10.00;6.30;;;6.10;99.90;;;;;;5090341;28;20428;-70
2020/12/03 13:11:42;;;;;;;9.20;6.57;;;6.10;99.90;;;;;;5090021;28;20771;-70
2020/12/03 13:14:09;;;;;;;11.90;6.93;;;6.10;99.90;;;;;;5090952;28;20418;-70
2020/12/03 13:16:36;;;;;;;10.10;6.30;;;6.10;99.90;;;;;;5091064;28;20456;-70
2020/12/03 13:19:03;;;;;;;15.23;6.37;;;6.10;99.90;;;;;;5090979;28;21104;-70